createdAt,value
2023-04-20T00:00:12.000Z,1002.4
2023-04-20T00:01:29.041Z,1002.3
2023-04-20T00:02:45.000Z,1002.4
2023-04-20T00:04:00.000Z,1002.4
2023-04-20T00:05:16.000Z,1002.3
2023-04-20T00:06:33.000Z,1002.3
2023-04-20T00:07:49.000Z,1002.3
2023-04-20T00:09:05.000Z,1002.3
2023-04-20T00:10:22.000Z,1002.3
2023-04-20T00:11:38.441Z,1002.4
2023-04-20T00:12:54.000Z,1002.3
2023-04-20T00:14:11.000Z,1002.3
2023-04-20T00:15:27.000Z,1002.2
2023-04-20T00:16:43.616Z,1002.2
2023-04-20T00:17:59.000Z,1002.2
2023-04-20T00:19:16.000Z,1002.2
2023-04-20T00:20:32.485Z,1002.2
2023-04-20T00:21:47.000Z,1002.1
2023-04-20T00:23:04.000Z,1002.2
2023-04-20T00:24:20.000Z,1002.2
2023-04-20T00:25:36.000Z,1002.1
2023-04-20T00:26:52.956Z,1002.2
2023-04-20T00:28:09.000Z,1002.2
2023-04-20T00:29:25.000Z,1002.1
2023-04-20T00:30:41.000Z,1002.1
2023-04-20T00:31:58.147Z,1002.1
2023-04-20T00:33:14.000Z,1002.1
2023-04-20T00:34:30.722Z,1002.1
2023-04-20T00:35:47.000Z,1002
2023-04-20T00:37:03.000Z,1002
2023-04-20T00:38:19.000Z,1002
2023-04-20T00:39:34.000Z,1002
2023-04-20T00:40:51.000Z,1002
2023-04-20T00:42:07.494Z,1002
2023-04-20T00:43:23.000Z,1002.1
2023-04-20T00:44:40.000Z,1002
2023-04-20T00:45:56.000Z,1002
2023-04-20T00:47:12.000Z,1002
2023-04-20T00:48:28.000Z,1002
2023-04-20T00:49:45.000Z,1002.1
2023-04-20T00:51:01.000Z,1002
2023-04-20T00:52:17.000Z,1002.1
2023-04-20T00:53:34.000Z,1002
2023-04-20T00:54:50.428Z,1002
2023-04-20T00:56:05.000Z,1002
2023-04-20T00:57:22.000Z,1002
2023-04-20T00:58:38.000Z,1002
2023-04-20T00:59:54.000Z,1002
2023-04-20T01:01:10.000Z,1002
2023-04-20T01:02:27.246Z,1002
2023-04-20T01:03:43.000Z,1002
2023-04-20T01:04:59.000Z,1002
2023-04-20T01:06:16.000Z,1002.1
2023-04-20T01:07:32.000Z,1002
2023-04-20T01:08:48.000Z,1002
2023-04-20T01:10:05.004Z,1002
2023-04-20T01:11:21.000Z,1002
2023-04-20T01:12:36.616Z,1002
2023-04-20T01:13:52.000Z,1002
2023-04-20T01:15:09.000Z,1002
2023-04-20T01:16:25.000Z,1001.9
2023-04-20T01:17:41.784Z,1001.8
2023-04-20T01:18:58.000Z,1001.8
2023-04-20T01:20:14.000Z,1001.8
2023-04-20T01:21:30.000Z,1001.9
2023-04-20T01:22:46.000Z,1001.9
2023-04-20T01:24:03.000Z,1001.9
2023-04-20T01:25:19.000Z,1001.9
2023-04-20T01:26:35.000Z,1001.9
2023-04-20T01:27:52.000Z,1001.9
2023-04-20T01:29:07.000Z,1001.8
2023-04-20T01:30:23.000Z,1001.8
2023-04-20T01:31:40.000Z,1001.8
2023-04-20T01:32:56.333Z,1001.8
2023-04-20T01:34:12.000Z,1001.8
2023-04-20T01:35:28.000Z,1001.8
2023-04-20T01:36:45.000Z,1001.8
2023-04-20T01:38:01.000Z,1001.8
2023-04-20T01:39:17.000Z,1001.8
2023-04-20T01:40:34.075Z,1001.8
2023-04-20T01:41:50.000Z,1001.8
2023-04-20T01:43:06.647Z,1001.8
2023-04-20T01:44:22.000Z,1001.7
2023-04-20T01:45:38.289Z,1001.7
2023-04-20T01:46:54.000Z,1001.8
2023-04-20T01:48:10.865Z,1001.7
2023-04-20T01:49:27.000Z,1001.7
2023-04-20T01:50:43.000Z,1001.7
2023-04-20T01:51:59.000Z,1001.7
2023-04-20T01:53:16.000Z,1001.8
2023-04-20T01:54:32.305Z,1001.7
2023-04-20T01:55:48.000Z,1001.8
2023-04-20T01:57:04.000Z,1001.7
2023-04-20T01:58:21.000Z,1001.8
2023-04-20T01:59:37.000Z,1001.8
2023-04-20T02:00:53.000Z,1001.8
2023-04-20T02:02:09.000Z,1001.8
2023-04-20T02:03:25.414Z,1001.8
2023-04-20T02:04:41.000Z,1001.8
2023-04-20T02:05:58.002Z,1001.7
2023-04-20T02:07:14.000Z,1001.7
2023-04-20T02:08:30.000Z,1001.7
2023-04-20T02:09:46.000Z,1001.7
2023-04-20T02:11:03.000Z,1001.8
2023-04-20T02:12:19.000Z,1001.7
2023-04-20T02:13:35.735Z,1001.7
2023-04-20T02:14:52.000Z,1001.7
2023-04-20T02:16:08.320Z,1001.7
2023-04-20T02:17:24.000Z,1001.7
2023-04-20T02:18:40.000Z,1001.7
2023-04-20T02:19:56.000Z,1001.6
2023-04-20T02:21:12.000Z,1001.7
2023-04-20T02:22:28.000Z,1001.7
2023-04-20T02:23:45.000Z,1001.7
2023-04-20T02:25:01.000Z,1001.7
2023-04-20T02:26:17.687Z,1001.7
2023-04-20T02:27:34.000Z,1001.7
2023-04-20T02:28:50.272Z,1001.7
2023-04-20T02:30:06.000Z,1001.7
2023-04-20T02:31:22.000Z,1001.7
2023-04-20T02:32:39.000Z,1001.8
2023-04-20T02:33:55.000Z,1001.8
2023-04-20T02:35:11.000Z,1001.8
2023-04-20T02:36:27.059Z,1001.9
2023-04-20T02:37:43.000Z,1001.9
2023-04-20T02:38:58.000Z,1001.9
2023-04-20T02:40:14.000Z,1001.9
2023-04-20T02:41:31.000Z,1001.9
2023-04-20T02:42:47.000Z,1001.9
2023-04-20T02:44:03.000Z,1001.9
2023-04-20T02:45:20.000Z,1001.8
2023-04-20T02:46:36.437Z,1001.8
2023-04-20T02:47:52.000Z,1001.9
2023-04-20T02:49:09.026Z,1001.9
2023-04-20T02:50:25.000Z,1001.8
2023-04-20T02:51:41.000Z,1001.9
2023-04-20T02:52:57.000Z,1001.8
2023-04-20T02:54:14.000Z,1001.8
2023-04-20T02:55:29.000Z,1001.8
2023-04-20T02:56:45.794Z,1001.8
2023-04-20T02:58:02.000Z,1001.7
2023-04-20T02:59:18.375Z,1001.8
2023-04-20T03:00:34.000Z,1001.8
2023-04-20T03:01:51.000Z,1001.8
2023-04-20T03:03:07.000Z,1001.7
2023-04-20T03:04:23.000Z,1001.8
2023-04-20T03:05:39.000Z,1001.7
2023-04-20T03:06:56.143Z,1001.8
2023-04-20T03:08:12.000Z,1001.7
2023-04-20T03:09:28.000Z,1001.8
2023-04-20T03:10:45.000Z,1001.7
2023-04-20T03:12:00.000Z,1001.8
2023-04-20T03:13:16.000Z,1001.8
2023-04-20T03:14:32.000Z,1001.7
2023-04-20T03:15:49.000Z,1001.7
2023-04-20T03:17:05.000Z,1001.7
2023-04-20T03:18:21.000Z,1001.7
2023-04-20T03:19:38.111Z,1001.7
2023-04-20T03:20:54.000Z,1001.6
2023-04-20T03:22:10.000Z,1001.7
2023-04-20T03:23:27.000Z,1001.7
2023-04-20T03:24:43.000Z,1001.8
2023-04-20T03:25:59.000Z,1001.8
2023-04-20T03:27:15.876Z,1001.8
2023-04-20T03:28:31.000Z,1001.8
2023-04-20T03:29:47.463Z,1001.8
2023-04-20T03:31:03.000Z,1001.8
2023-04-20T03:32:20.000Z,1001.8
2023-04-20T03:33:36.000Z,1001.8
2023-04-20T03:34:52.499Z,1001.8
2023-04-20T03:36:08.000Z,1001.8
2023-04-20T03:37:25.000Z,1001.7
2023-04-20T03:38:41.000Z,1001.7
2023-04-20T03:39:57.000Z,1001.7
2023-04-20T03:41:13.766Z,1001.7
2023-04-20T03:42:30.027Z,1001.8
2023-04-20T03:43:46.000Z,1001.8
2023-04-20T03:45:01.000Z,1001.8
2023-04-20T03:46:17.000Z,1001.8
2023-04-20T03:47:34.000Z,1001.8
2023-04-20T03:48:50.000Z,1001.8
2023-04-20T03:50:06.000Z,1001.8
2023-04-20T03:51:22.000Z,1001.8
2023-04-20T03:52:38.947Z,1001.8
2023-04-20T03:53:55.000Z,1001.8
2023-04-20T03:55:11.000Z,1001.8
2023-04-20T03:56:27.000Z,1001.8
2023-04-20T03:57:43.000Z,1001.8
2023-04-20T03:59:00.000Z,1001.8
2023-04-20T04:00:16.394Z,1001.8
2023-04-20T04:01:31.000Z,1001.8
2023-04-20T04:02:47.000Z,1001.8
2023-04-20T04:04:04.000Z,1001.8
2023-04-20T04:05:20.000Z,1001.8
2023-04-20T04:06:36.000Z,1001.8
2023-04-20T04:07:52.000Z,1001.8
2023-04-20T04:09:09.000Z,1001.8
2023-04-20T04:10:25.000Z,1001.8
2023-04-20T04:11:41.000Z,1001.8
2023-04-20T04:12:57.805Z,1001.8
2023-04-20T04:14:14.000Z,1001.8
2023-04-20T04:15:30.000Z,1001.9
2023-04-20T04:16:46.000Z,1001.8
2023-04-20T04:18:01.000Z,1001.8
2023-04-20T04:19:18.000Z,1001.9
2023-04-20T04:20:34.000Z,1001.9
2023-04-20T04:21:50.000Z,1001.9
2023-04-20T04:23:06.743Z,1001.9
2023-04-20T04:24:23.000Z,1001.9
2023-04-20T04:25:39.000Z,1001.9
2023-04-20T04:26:55.000Z,1001.9
2023-04-20T04:28:11.000Z,1001.8
2023-04-20T04:29:27.000Z,1001.9
2023-04-20T04:30:44.185Z,1001.9
2023-04-20T04:32:00.000Z,1001.9
2023-04-20T04:33:16.650Z,1002
2023-04-20T04:34:31.000Z,1002
2023-04-20T04:35:48.152Z,1001.9
2023-04-20T04:37:04.000Z,1002
2023-04-20T04:38:20.000Z,1002
2023-04-20T04:39:36.000Z,1002
2023-04-20T04:40:53.000Z,1002
2023-04-20T04:42:09.386Z,1002
2023-04-20T04:43:25.000Z,1002
2023-04-20T04:44:41.000Z,1002
2023-04-20T04:45:58.063Z,1002
2023-04-20T04:47:14.000Z,1002.1
2023-04-20T04:48:30.000Z,1002.1
2023-04-20T04:49:46.000Z,1002.1
2023-04-20T04:51:02.000Z,1002.1
2023-04-20T04:52:18.000Z,1002.1
2023-04-20T04:53:34.000Z,1002.1
2023-04-20T04:54:50.000Z,1002.1
2023-04-20T04:56:07.001Z,1002.1
2023-04-20T04:57:23.000Z,1002.1
2023-04-20T04:58:39.000Z,1002.1
2023-04-20T04:59:55.000Z,1002.1
2023-04-20T05:01:11.000Z,1002.1
2023-04-20T05:02:28.000Z,1002.1
2023-04-20T05:03:44.000Z,1002.1
2023-04-20T05:05:00.689Z,1002.1
2023-04-20T05:06:16.926Z,1002.1
2023-04-20T05:07:32.000Z,1002.1
2023-04-20T05:08:48.404Z,1002.1
2023-04-20T05:10:04.000Z,1002.1
2023-04-20T05:11:20.000Z,1002.1
2023-04-20T05:12:37.000Z,1002.1
2023-04-20T05:13:53.000Z,1002.1
2023-04-20T05:15:09.000Z,1002.2
2023-04-20T05:16:25.847Z,1002.2
2023-04-20T05:17:42.000Z,1002.2
2023-04-20T05:18:58.000Z,1002.2
2023-04-20T05:20:14.000Z,1002.2
2023-04-20T05:21:30.000Z,1002.2
2023-04-20T05:22:47.000Z,1002.2
2023-04-20T05:24:02.000Z,1002.3
2023-04-20T05:25:18.000Z,1002.3
2023-04-20T05:26:34.000Z,1002.3
2023-04-20T05:27:51.000Z,1002.2
2023-04-20T05:29:07.000Z,1002.3
2023-04-20T05:30:23.000Z,1002.3
2023-04-20T05:31:39.000Z,1002.3
2023-04-20T05:32:56.000Z,1002.3
2023-04-20T05:34:12.000Z,1002.3
2023-04-20T05:35:28.000Z,1002.4
2023-04-20T05:36:44.000Z,1002.3
2023-04-20T05:38:00.000Z,1002.4
2023-04-20T05:39:17.177Z,1002.5
2023-04-20T05:40:32.000Z,1002.5
2023-04-20T05:41:48.000Z,1002.4
2023-04-20T05:43:04.000Z,1002.5
2023-04-20T05:44:21.000Z,1002.5
2023-04-20T05:45:37.000Z,1002.5
2023-04-20T05:46:53.635Z,1002.5
2023-04-20T05:48:09.000Z,1002.5
2023-04-20T05:49:26.116Z,1002.5
2023-04-20T05:50:42.000Z,1002.6
2023-04-20T05:51:58.000Z,1002.6
2023-04-20T05:53:14.000Z,1002.6
2023-04-20T05:54:31.000Z,1002.6
2023-04-20T05:55:47.000Z,1002.6
2023-04-20T05:57:02.000Z,1002.6
2023-04-20T05:58:18.000Z,1002.6
2023-04-20T05:59:35.000Z,1002.7
2023-04-20T06:00:51.000Z,1002.7
2023-04-20T06:02:07.524Z,1002.8
2023-04-20T06:03:23.000Z,1002.7
2023-04-20T06:04:40.000Z,1002.7
2023-04-20T06:05:56.000Z,1002.7
2023-04-20T06:07:12.000Z,1002.8
2023-04-20T06:08:28.000Z,1002.7
2023-04-20T06:09:44.965Z,1002.7
2023-04-20T06:11:01.000Z,1002.7
2023-04-20T06:12:17.000Z,1002.8
2023-04-20T06:13:33.000Z,1002.8
2023-04-20T06:14:48.000Z,1002.8
2023-04-20T06:16:05.000Z,1002.8
2023-04-20T06:17:21.000Z,1002.8
2023-04-20T06:18:37.000Z,1002.8
2023-04-20T06:19:53.000Z,1002.8
2023-04-20T06:21:10.000Z,1002.8
2023-04-20T06:22:26.000Z,1002.8
2023-04-20T06:23:42.000Z,1002.8
2023-04-20T06:24:58.000Z,1002.8
2023-04-20T06:26:15.000Z,1002.9
2023-04-20T06:27:31.000Z,1002.8
2023-04-20T06:28:47.000Z,1002.8
2023-04-20T06:30:03.000Z,1002.8
2023-04-20T06:31:19.000Z,1002.8
2023-04-20T06:32:35.000Z,1002.8
2023-04-20T06:33:51.000Z,1002.9
2023-04-20T06:35:07.000Z,1002.8
2023-04-20T06:36:24.000Z,1002.9
2023-04-20T06:37:40.000Z,1002.9
2023-04-20T06:38:56.000Z,1002.9
2023-04-20T06:40:12.000Z,1002.9
2023-04-20T06:41:29.000Z,1002.9
2023-04-20T06:42:45.000Z,1002.9
2023-04-20T06:44:01.000Z,1002.9
2023-04-20T06:45:17.000Z,1002.9
2023-04-20T06:46:33.000Z,1002.9
2023-04-20T06:47:49.000Z,1002.9
2023-04-20T06:49:05.000Z,1002.8
2023-04-20T06:50:21.000Z,1002.8
2023-04-20T06:51:37.000Z,1002.9
2023-04-20T06:52:54.000Z,1002.9
2023-04-20T06:54:09.000Z,1002.8
2023-04-20T06:55:25.000Z,1002.8
2023-04-20T06:56:41.000Z,1002.8
2023-04-20T06:57:58.000Z,1002.8
2023-04-20T06:59:14.000Z,1002.8
2023-04-20T07:00:30.000Z,1002.8
2023-04-20T07:01:46.000Z,1002.9
2023-04-20T07:03:03.000Z,1002.8
2023-04-20T07:04:19.000Z,1002.9
2023-04-20T07:05:35.000Z,1002.9
2023-04-20T07:06:51.000Z,1002.9
2023-04-20T07:08:08.000Z,1002.8
2023-04-20T07:09:24.000Z,1002.8
2023-04-20T07:10:39.000Z,1002.8
2023-04-20T07:11:55.000Z,1002.8
2023-04-20T07:13:12.000Z,1002.8
2023-04-20T07:14:28.000Z,1002.8
2023-04-20T07:15:44.000Z,1002.8
2023-04-20T07:17:00.000Z,1002.7
2023-04-20T07:18:17.000Z,1002.7
2023-04-20T07:19:33.000Z,1002.7
2023-04-20T07:20:49.490Z,1002.6
2023-04-20T07:22:05.000Z,1002.7
2023-04-20T07:23:22.000Z,1002.6
2023-04-20T07:24:38.000Z,1002.7
2023-04-20T07:25:54.000Z,1002.7
2023-04-20T07:27:09.000Z,1002.7
2023-04-20T07:28:25.000Z,1002.7
2023-04-20T07:29:42.000Z,1002.6
2023-04-20T07:30:58.414Z,1002.6
2023-04-20T07:32:14.000Z,1002.7
2023-04-20T07:33:30.000Z,1002.6
2023-04-20T07:34:47.000Z,1002.6
2023-04-20T07:36:03.000Z,1002.6
2023-04-20T07:37:19.000Z,1002.7
2023-04-20T07:38:35.000Z,1002.7
2023-04-20T07:39:52.000Z,1002.7
2023-04-20T07:41:08.000Z,1002.8
2023-04-20T07:42:24.000Z,1002.8
2023-04-20T07:43:39.843Z,1002.7
2023-04-20T07:44:56.079Z,1002.8
2023-04-20T07:46:12.000Z,1002.7
2023-04-20T07:47:28.000Z,1002.8
2023-04-20T07:48:44.000Z,1002.8
2023-04-20T07:50:01.000Z,1002.8
2023-04-20T07:51:17.000Z,1002.8
2023-04-20T07:52:33.000Z,1002.8
2023-04-20T07:53:49.745Z,1002.8
2023-04-20T07:55:06.000Z,1002.8
2023-04-20T07:56:22.000Z,1002.8
2023-04-20T07:57:38.000Z,1002.8
2023-04-20T07:58:54.000Z,1002.8
2023-04-20T08:00:09.000Z,1002.8
2023-04-20T08:01:26.000Z,1002.8
2023-04-20T08:02:42.000Z,1002.8
2023-04-20T08:03:58.000Z,1002.8
2023-04-20T08:05:14.000Z,1002.7
2023-04-20T08:06:31.158Z,1002.7
2023-04-20T08:07:47.000Z,1002.7
2023-04-20T08:09:03.000Z,1002.7
2023-04-20T08:10:19.000Z,1002.6
2023-04-20T08:11:36.000Z,1002.6
2023-04-20T08:12:52.000Z,1002.7
2023-04-20T08:14:08.000Z,1002.6
2023-04-20T08:15:24.000Z,1002.6
2023-04-20T08:16:40.000Z,1002.6
2023-04-20T08:17:56.000Z,1002.6
2023-04-20T08:19:12.000Z,1002.6
2023-04-20T08:20:28.000Z,1002.6
2023-04-20T08:21:45.000Z,1002.7
2023-04-20T08:23:01.000Z,1002.6
2023-04-20T08:24:17.000Z,1002.6
2023-04-20T08:25:33.000Z,1002.6
2023-04-20T08:26:50.000Z,1002.6
2023-04-20T08:28:06.000Z,1002.7
2023-04-20T08:29:22.000Z,1002.6
2023-04-20T08:30:38.000Z,1002.7
2023-04-20T08:31:54.000Z,1002.7
2023-04-20T08:33:11.000Z,1002.7
2023-04-20T08:34:26.000Z,1002.7
2023-04-20T08:35:42.000Z,1002.7
2023-04-20T08:36:58.000Z,1002.7
2023-04-20T08:38:15.000Z,1002.7
2023-04-20T08:39:31.413Z,1002.7
2023-04-20T08:40:47.000Z,1002.8
2023-04-20T08:42:03.000Z,1002.7
2023-04-20T08:43:20.000Z,1002.8
2023-04-20T08:44:36.387Z,1002.7
2023-04-20T08:45:52.000Z,1002.7
2023-04-20T08:47:08.000Z,1002.7
2023-04-20T08:48:25.000Z,1002.6
2023-04-20T08:49:41.335Z,1002.5
2023-04-20T08:50:56.000Z,1002.6
2023-04-20T08:52:12.825Z,1002.6
2023-04-20T08:53:29.000Z,1002.6
2023-04-20T08:54:45.000Z,1002.6
2023-04-20T08:56:01.000Z,1002.6
2023-04-20T08:57:17.000Z,1002.6
2023-04-20T08:58:34.000Z,1002.6
2023-04-20T08:59:50.000Z,1002.6
2023-04-20T09:01:06.000Z,1002.7
2023-04-20T09:02:22.000Z,1002.6
2023-04-20T09:03:39.000Z,1002.6
2023-04-20T09:04:55.000Z,1002.6
2023-04-20T09:06:11.000Z,1002.6
2023-04-20T09:07:26.000Z,1002.6
2023-04-20T09:08:42.000Z,1002.7
2023-04-20T09:09:59.000Z,1002.6
2023-04-20T09:11:15.000Z,1002.7
2023-04-20T09:12:31.681Z,1002.6
2023-04-20T09:13:47.000Z,1002.7
2023-04-20T09:15:04.000Z,1002.7
2023-04-20T09:16:20.000Z,1002.7
2023-04-20T09:17:36.000Z,1002.6
2023-04-20T09:18:52.000Z,1002.8
2023-04-20T09:20:09.000Z,1002.7
2023-04-20T09:21:25.000Z,1002.7
2023-04-20T09:22:41.000Z,1002.8
2023-04-20T09:23:56.000Z,1002.8
2023-04-20T09:25:13.000Z,1002.8
2023-04-20T09:26:29.000Z,1002.8
2023-04-20T09:27:45.561Z,1002.8
2023-04-20T09:29:01.000Z,1002.8
2023-04-20T09:30:18.000Z,1002.8
2023-04-20T09:31:34.000Z,1002.8
2023-04-20T09:32:50.534Z,1002.8
2023-04-20T09:34:06.000Z,1002.7
2023-04-20T09:35:23.000Z,1002.7
2023-04-20T09:36:39.000Z,1002.7
2023-04-20T09:37:55.000Z,1002.7
2023-04-20T09:39:11.000Z,1002.7
2023-04-20T09:40:26.975Z,1002.7
2023-04-20T09:41:43.000Z,1002.7
2023-04-20T09:42:59.465Z,1002.7
2023-04-20T09:44:15.000Z,1002.7
2023-04-20T09:45:31.000Z,1002.7
2023-04-20T09:46:48.000Z,1002.7
2023-04-20T09:48:04.000Z,1002.6
2023-04-20T09:49:20.000Z,1002.6
2023-04-20T09:50:36.000Z,1002.6
2023-04-20T09:51:53.000Z,1002.6
2023-04-20T09:53:09.000Z,1002.6
2023-04-20T09:54:25.000Z,1002.6
2023-04-20T09:55:41.858Z,1002.7
2023-04-20T09:56:57.000Z,1002.7
2023-04-20T09:58:13.000Z,1002.6
2023-04-20T09:59:29.000Z,1002.6
2023-04-20T10:00:45.000Z,1002.5
2023-04-20T10:02:02.074Z,1002.6
2023-04-20T10:03:18.000Z,1002.6
2023-04-20T10:04:34.000Z,1002.5
2023-04-20T10:05:50.000Z,1002.6
2023-04-20T10:07:07.000Z,1002.6
2023-04-20T10:08:23.000Z,1002.7
2023-04-20T10:09:39.000Z,1002.7
2023-04-20T10:10:55.000Z,1002.7
2023-04-20T10:12:12.000Z,1002.6
2023-04-20T10:13:27.000Z,1002.6
2023-04-20T10:14:43.000Z,1002.6
2023-04-20T10:15:59.000Z,1002.6
2023-04-20T10:17:15.000Z,1002.6
2023-04-20T10:18:32.000Z,1002.6
2023-04-20T10:19:48.000Z,1002.6
2023-04-20T10:21:04.000Z,1002.6
2023-04-20T10:22:20.000Z,1002.6
2023-04-20T10:23:37.000Z,1002.6
2023-04-20T10:24:53.000Z,1002.6
2023-04-20T10:26:09.000Z,1002.6
2023-04-20T10:27:25.000Z,1002.6
2023-04-20T10:28:42.000Z,1002.6
2023-04-20T10:29:57.000Z,1002.6
2023-04-20T10:31:13.000Z,1002.6
2023-04-20T10:32:29.000Z,1002.6
2023-04-20T10:33:46.085Z,1002.6
2023-04-20T10:35:02.000Z,1002.5
2023-04-20T10:36:18.000Z,1002.5
2023-04-20T10:37:34.000Z,1002.5
2023-04-20T10:38:51.000Z,1002.5
2023-04-20T10:40:07.000Z,1002.4
2023-04-20T10:41:23.000Z,1002.4
2023-04-20T10:42:39.000Z,1002.4
2023-04-20T10:43:56.000Z,1002.4
2023-04-20T10:45:12.000Z,1002.4
2023-04-20T10:46:27.000Z,1002.3
2023-04-20T10:47:43.000Z,1002.2
2023-04-20T10:48:59.981Z,1002.3
2023-04-20T10:50:16.000Z,1002.3
2023-04-20T10:51:32.000Z,1002.3
2023-04-20T10:52:48.000Z,1002.2
2023-04-20T10:54:04.000Z,1002.3
2023-04-20T10:55:21.000Z,1002.2
2023-04-20T10:56:37.418Z,1002.2
2023-04-20T10:57:53.000Z,1002.2
2023-04-20T10:59:09.000Z,1002.2
2023-04-20T11:00:26.000Z,1002.2
2023-04-20T11:01:42.000Z,1002.2
2023-04-20T11:02:57.000Z,1002.2
2023-04-20T11:04:13.861Z,1002.2
2023-04-20T11:05:30.000Z,1002.2
2023-04-20T11:06:46.000Z,1002.1
2023-04-20T11:08:02.000Z,1002.1
2023-04-20T11:09:17.000Z,1002.1
2023-04-20T11:10:34.000Z,1002.1
2023-04-20T11:11:50.000Z,1002.1
2023-04-20T11:13:06.000Z,1002.1
2023-04-20T11:14:22.000Z,1002.1
2023-04-20T11:15:39.000Z,1002.2
2023-04-20T11:16:55.285Z,1002.1
2023-04-20T11:18:11.000Z,1002.1
2023-04-20T11:19:27.000Z,1002.1
2023-04-20T11:20:44.000Z,1002.1
2023-04-20T11:22:00.000Z,1002.1
2023-04-20T11:23:16.000Z,1002.1
2023-04-20T11:24:32.000Z,1002.1
2023-04-20T11:25:48.000Z,1002.1
2023-04-20T11:27:04.228Z,1002.2
2023-04-20T11:28:20.000Z,1002.1
2023-04-20T11:29:36.000Z,1002.1
2023-04-20T11:30:52.000Z,1002.1
2023-04-20T11:32:09.000Z,1002.1
2023-04-20T11:33:25.000Z,1002.1
2023-04-20T11:34:41.000Z,1002.1
2023-04-20T11:35:57.000Z,1002.2
2023-04-20T11:37:14.000Z,1002.2
2023-04-20T11:38:30.000Z,1002.2
2023-04-20T11:39:46.000Z,1002.2
2023-04-20T11:41:02.000Z,1002.2
2023-04-20T11:42:18.000Z,1002.2
2023-04-20T11:43:34.000Z,1002.3
2023-04-20T11:44:50.000Z,1002.3
2023-04-20T11:46:06.000Z,1002.2
2023-04-20T11:47:23.000Z,1002.2
2023-04-20T11:48:39.000Z,1002.2
2023-04-20T11:49:55.000Z,1002.2
2023-04-20T11:51:11.000Z,1002.2
2023-04-20T11:52:28.000Z,1002.2
2023-04-20T11:53:44.000Z,1002.2
2023-04-20T11:55:00.000Z,1002.1
2023-04-20T11:56:16.000Z,1002.1
2023-04-20T11:57:33.000Z,1002.1
2023-04-20T11:58:48.000Z,1002.1
2023-04-20T12:00:04.000Z,1002.1
2023-04-20T12:01:20.711Z,1002.2
2023-04-20T12:02:36.000Z,1002.1
2023-04-20T12:03:53.000Z,1002.1
2023-04-20T12:05:09.000Z,1002.1
2023-04-20T12:06:25.000Z,1002.1
2023-04-20T12:07:41.000Z,1002.1
2023-04-20T12:08:58.000Z,1002
2023-04-20T12:10:14.000Z,1002
2023-04-20T12:11:30.000Z,1002
2023-04-20T12:12:46.000Z,1002
2023-04-20T12:14:03.000Z,1002
2023-04-20T12:15:18.000Z,1001.9
2023-04-20T12:16:34.000Z,1001.9
2023-04-20T12:17:50.000Z,1002
2023-04-20T12:19:07.000Z,1001.9
2023-04-20T12:20:23.000Z,1001.9
2023-04-20T12:21:39.000Z,1001.9
2023-04-20T12:22:55.000Z,1001.9
2023-04-20T12:24:12.000Z,1001.9
2023-04-20T12:25:28.000Z,1001.8
2023-04-20T12:26:44.000Z,1001.9
2023-04-20T12:28:00.761Z,1001.9
2023-04-20T12:29:17.000Z,1001.9
2023-04-20T12:30:33.000Z,1001.9
2023-04-20T12:31:48.000Z,1001.9
2023-04-20T12:33:04.000Z,1001.8
2023-04-20T12:34:21.000Z,1001.8
2023-04-20T12:35:37.000Z,1001.9
2023-04-20T12:36:53.000Z,1001.8
2023-04-20T12:38:09.000Z,1001.9
2023-04-20T12:39:25.000Z,1001.7
2023-04-20T12:40:42.191Z,1001.8
2023-04-20T12:41:58.000Z,1001.8
2023-04-20T12:43:14.000Z,1001.7
2023-04-20T12:44:30.000Z,1001.8
2023-04-20T12:45:47.133Z,1001.9
2023-04-20T12:47:03.000Z,1001.8
2023-04-20T12:48:18.000Z,1001.8
2023-04-20T12:49:34.000Z,1001.8
2023-04-20T12:50:51.114Z,1001.8
2023-04-20T12:52:07.000Z,1001.8
2023-04-20T12:53:23.000Z,1001.8
2023-04-20T12:54:39.000Z,1001.9
2023-04-20T12:55:56.000Z,1001.8
2023-04-20T12:57:12.000Z,1001.9
2023-04-20T12:58:28.000Z,1001.9
2023-04-20T12:59:44.000Z,1001.8
2023-04-20T13:01:01.000Z,1001.9
2023-04-20T13:02:17.000Z,1001.9
2023-04-20T13:03:33.000Z,1001.9
2023-04-20T13:04:48.000Z,1001.8
2023-04-20T13:06:05.000Z,1001.8
2023-04-20T13:07:21.000Z,1001.8
2023-04-20T13:08:37.000Z,1001.8
2023-04-20T13:09:53.000Z,1001.8
2023-04-20T13:11:09.000Z,1001.7
2023-04-20T13:12:26.000Z,1001.7
2023-04-20T13:13:42.000Z,1001.7
2023-04-20T13:14:58.000Z,1001.7
2023-04-20T13:16:14.000Z,1001.8
2023-04-20T13:17:31.000Z,1001.7
2023-04-20T13:18:47.000Z,1001.7
2023-04-20T13:20:03.000Z,1001.7
2023-04-20T13:21:18.000Z,1001.7
2023-04-20T13:22:35.000Z,1001.7
2023-04-20T13:23:51.381Z,1001.6
2023-04-20T13:25:07.000Z,1001.6
2023-04-20T13:26:23.000Z,1001.6
2023-04-20T13:27:40.000Z,1001.6
2023-04-20T13:28:56.000Z,1001.7
2023-04-20T13:30:12.000Z,1001.7
2023-04-20T13:31:28.000Z,1001.6
2023-04-20T13:32:45.000Z,1001.7
2023-04-20T13:34:01.297Z,1001.6
2023-04-20T13:35:17.000Z,1001.6
2023-04-20T13:36:33.766Z,1001.7
2023-04-20T13:37:49.000Z,1001.7
2023-04-20T13:39:05.000Z,1001.6
2023-04-20T13:40:21.000Z,1001.6
2023-04-20T13:41:37.000Z,1001.6
2023-04-20T13:42:54.000Z,1001.6
2023-04-20T13:44:10.000Z,1001.6
2023-04-20T13:45:26.000Z,1001.6
2023-04-20T13:46:42.698Z,1001.6
2023-04-20T13:47:58.000Z,1001.6
2023-04-20T13:49:15.000Z,1001.6
2023-04-20T13:50:31.000Z,1001.6
2023-04-20T13:51:47.000Z,1001.5
2023-04-20T13:53:03.000Z,1001.5
2023-04-20T13:54:19.000Z,1001.6
2023-04-20T13:55:35.000Z,1001.5
2023-04-20T13:56:51.000Z,1001.5
2023-04-20T13:58:07.000Z,1001.6
2023-04-20T13:59:24.000Z,1001.6
2023-04-20T14:00:40.000Z,1001.5
2023-04-20T14:01:56.598Z,1001.6
2023-04-20T14:03:12.000Z,1001.6
2023-04-20T14:04:29.000Z,1001.5
2023-04-20T14:05:45.000Z,1001.5
2023-04-20T14:07:01.000Z,1001.5
2023-04-20T14:08:17.000Z,1001.5
2023-04-20T14:09:34.000Z,1001.5
2023-04-20T14:10:49.000Z,1001.4
2023-04-20T14:12:05.000Z,1001.5
2023-04-20T14:13:21.000Z,1001.4
2023-04-20T14:14:38.000Z,1001.4
2023-04-20T14:15:54.000Z,1001.4
2023-04-20T14:17:10.000Z,1001.4
2023-04-20T14:18:26.734Z,1001.5
2023-04-20T14:19:42.000Z,1001.5
2023-04-20T14:20:59.000Z,1001.5
2023-04-20T14:22:15.000Z,1001.5
2023-04-20T14:23:31.000Z,1001.5
2023-04-20T14:24:47.000Z,1001.4
2023-04-20T14:26:04.000Z,1001.4
2023-04-20T14:27:19.000Z,1001.4
2023-04-20T14:28:35.000Z,1001.4
2023-04-20T14:29:51.000Z,1001.4
2023-04-20T14:31:08.000Z,1001.4
2023-04-20T14:32:24.000Z,1001.4
2023-04-20T14:33:40.000Z,1001.4
2023-04-20T14:34:56.000Z,1001.5
2023-04-20T14:36:13.000Z,1001.4
2023-04-20T14:37:29.000Z,1001.3
2023-04-20T14:38:45.000Z,1001.4
2023-04-20T14:40:01.000Z,1001.3
2023-04-20T14:41:18.000Z,1001.4
2023-04-20T14:42:34.000Z,1001.4
2023-04-20T14:43:49.000Z,1001.4
2023-04-20T14:45:05.800Z,1001.4
2023-04-20T14:46:22.000Z,1001.4
2023-04-20T14:47:38.277Z,1001.4
2023-04-20T14:48:54.000Z,1001.4
2023-04-20T14:50:10.000Z,1001.4
2023-04-20T14:51:27.000Z,1001.4
2023-04-20T14:52:43.000Z,1001.3
2023-04-20T14:53:59.000Z,1001.3
2023-04-20T14:55:15.000Z,1001.3
2023-04-20T14:56:31.000Z,1001.3
2023-04-20T14:57:48.000Z,1001.3
2023-04-20T14:59:04.000Z,1001.3
2023-04-20T15:00:19.000Z,1001.3
2023-04-20T15:01:35.000Z,1001.3
2023-04-20T15:02:52.000Z,1001.3
2023-04-20T15:04:08.399Z,1001.2
2023-04-20T15:05:24.000Z,1001.2
2023-04-20T15:06:40.000Z,1001.2
2023-04-20T15:07:57.000Z,1001.2
2023-04-20T15:09:13.000Z,1001.1
2023-04-20T15:10:29.000Z,1001.2
2023-04-20T15:11:45.000Z,1001.2
2023-04-20T15:13:02.000Z,1001.2
2023-04-20T15:14:18.000Z,1001.1
2023-04-20T15:15:34.000Z,1001.1
2023-04-20T15:16:49.000Z,1001.1
2023-04-20T15:18:06.000Z,1001.1
2023-04-20T15:19:22.000Z,1001
2023-04-20T15:20:38.000Z,1001
2023-04-20T15:21:54.000Z,1001
2023-04-20T15:23:11.000Z,1001
2023-04-20T15:24:26.000Z,1001
2023-04-20T15:25:42.000Z,1001
2023-04-20T15:26:58.000Z,1001
2023-04-20T15:28:15.000Z,1001
2023-04-20T15:29:31.000Z,1001
2023-04-20T15:30:47.000Z,1001
2023-04-20T15:32:03.000Z,1000.9
2023-04-20T15:33:19.000Z,1000.9
2023-04-20T15:34:36.187Z,1000.9
2023-04-20T15:35:52.000Z,1000.9
2023-04-20T15:37:08.000Z,1000.9
2023-04-20T15:38:24.000Z,1000.9
2023-04-20T15:39:41.000Z,1000.9
2023-04-20T15:40:56.000Z,1000.9
2023-04-20T15:42:12.000Z,1000.9
2023-04-20T15:43:28.000Z,1000.8
2023-04-20T15:44:45.000Z,1000.9
2023-04-20T15:46:01.362Z,1000.8
2023-04-20T15:47:17.000Z,1000.8
2023-04-20T15:48:33.000Z,1000.8
2023-04-20T15:49:50.000Z,1000.8
2023-04-20T15:51:06.000Z,1000.7
2023-04-20T15:52:22.000Z,1000.7
2023-04-20T15:53:38.788Z,1000.7